Terminal Aerodrome Forecast
Issued by NWS Bismarck, ND

Home | Current Version | Previous Version | Text Only | Print | Product List | Glossary Off
Versions: 1 2 3 4 5 6 7 8 9 10 11 12 13 14 15 16 17 18 19 20 21

000
FTUS43 KBIS 250500
TAFISN
TAF
KISN 250520Z 2506/2606 11007KT P6SM BKN100
     FM251200 08007KT P6SM SCT010 BKN080
     FM251500 12012KT P6SM BKN020 OVC080
     FM252000 11015G22KT P6SM VCSH SCT040 OVC080=

USA.gov is the U.S. government's official web portal to all federal, state and local government web resources and services.